Time;durP1;ratioP1;P1;durP2;ratioP2;P2;SDS_P1;SDS_P2;PMS_P1;PMS_P2;Temp;Humidity;BMP_temperature;BMP_pressure;BME280_temperature;BME280_humidity;BME280_pressure;Samples;Min_cycle;Max_cycle;Signal;HPM_P1;HPM_P2
2022/12/28 00:00:21;;;;;;;14.10;3.40;;;;;;;1.72;94.11;100164.36;105715;1294;58574;-67
2022/12/28 00:03:29;;;;;;;11.80;3.10;;;;;;;1.74;93.88;100169.56;105656;1294;60420;-67
2022/12/28 00:06:23;;;;;;;12.10;2.80;;;;;;;1.74;93.78;100169.56;105586;1300;71571;-67
2022/12/28 00:09:12;;;;;;;8.30;2.70;;;;;;;1.73;93.63;100168.90;105675;1290;67878;-70
2022/12/28 00:12:00;;;;;;;10.50;3.10;;;;;;;1.69;93.56;100166.92;105711;1294;70035;-68
2022/12/28 00:14:48;;;;;;;9.40;3.20;;;;;;;1.68;93.79;100164.52;105509;1294;58524;-69
2022/12/28 00:17:35;;;;;;;9.00;2.90;;;;;;;1.64;93.69;100163.27;105706;1290;61185;-68
2022/12/28 00:20:24;;;;;;;11.20;3.20;;;;;;;1.61;93.93;100166.88;105846;1291;72324;-68
2022/12/28 00:23:12;;;;;;;12.40;3.20;;;;;;;1.58;93.87;100167.17;105821;1301;67056;-66
2022/12/28 00:26:12;;;;;;;12.80;3.00;;;;;;;1.54;94.22;100165.41;105055;1294;1002975;-67
2022/12/28 00:29:01;;;;;;;14.20;2.90;;;;;;;1.50;94.58;100162.95;105820;1287;58613;-66
2022/12/28 00:31:52;;;;;;;9.80;2.90;;;;;;;1.49;94.88;100164.73;105725;1294;59212;-67
2022/12/28 00:34:43;;;;;;;13.00;3.10;;;;;;;1.51;94.88;100157.47;105709;1293;74983;-68
2022/12/28 00:37:32;;;;;;;8.30;2.60;;;;;;;1.51;94.67;100154.14;105843;1293;66690;-68
2022/12/28 00:40:20;;;;;;;9.40;2.10;;;;;;;1.51;94.49;100152.58;105832;1294;71542;-67
2022/12/28 00:43:11;;;;;;;12.70;3.40;;;;;;;1.49;94.40;100147.42;105732;1292;58166;-69
2022/12/28 00:46:00;;;;;;;8.80;3.00;;;;;;;1.45;94.41;100145.48;105650;1287;59527;-67
2022/12/28 00:48:48;;;;;;;11.10;2.90;;;;;;;1.41;94.37;100144.77;105693;1288;73755;-67
2022/12/28 00:51:36;;;;;;;11.60;2.80;;;;;;;1.36;94.61;100146.86;105838;1285;67490;-67
2022/12/28 00:54:25;;;;;;;8.70;2.70;;;;;;;1.31;94.87;100144.95;105823;1286;73753;-67
2022/12/28 00:57:12;;;;;;;11.00;2.90;;;;;;;1.28;95.07;100144.91;105820;1294;58021;-66
2022/12/28 01:00:00;;;;;;;9.30;2.50;;;;;;;1.23;95.42;100144.56;105827;1294;58937;-66
2022/12/28 01:02:48;;;;;;;11.70;3.20;;;;;;;1.19;95.84;100145.39;105824;1292;72479;-65
2022/12/28 01:05:39;;;;;;;13.90;2.90;;;;;;;1.17;95.56;100145.83;105087;1287;1002352;-66
2022/12/28 01:08:28;;;;;;;11.40;2.60;;;;;;;1.14;95.77;100140.49;105661;1297;73736;-67
2022/12/28 01:11:22;;;;;;;11.60;2.90;;;;;;;1.13;95.56;100134.08;105814;1287;58498;-66
2022/12/28 01:14:10;;;;;;;8.70;2.30;;;;;;;1.13;95.48;100137.40;105639;1290;59007;-66
2022/12/28 01:16:59;;;;;;;7.70;2.40;;;;;;;1.14;95.46;100137.04;105825;1293;73572;-67
2022/12/28 01:19:47;;;;;;;15.50;3.30;;;;;;;1.15;95.57;100136.11;105735;1294;67796;-66
2022/12/28 01:22:40;;;;;;;12.40;2.50;;;;;;;1.18;95.81;100137.56;105807;1293;72545;-68
2022/12/28 01:25:28;;;;;;;10.60;2.80;;;;;;;1.25;95.83;100141.17;105750;1290;57993;-66
2022/12/28 01:28:19;;;;;;;9.00;2.50;;;;;;;1.31;95.92;100135.67;105821;1291;61623;-66
2022/12/28 01:31:13;;;;;;;10.50;2.70;;;;;;;1.40;95.69;100133.78;105814;1285;73668;-67
2022/12/28 01:34:02;;;;;;;8.90;3.00;;;;;;;1.47;95.56;100133.50;105754;1295;67846;-66
2022/12/28 01:36:50;;;;;;;11.50;2.80;;;;;;;1.53;95.56;100132.55;105697;1287;74016;-66
2022/12/28 01:39:38;;;;;;;14.00;3.10;;;;;;;1.55;95.24;100126.02;105702;1302;58638;-68
2022/12/28 01:42:26;;;;;;;16.20;3.50;;;;;;;1.54;95.03;100125.69;105719;1286;60401;-66
2022/12/28 01:45:21;;;;;;;14.60;3.10;;;;;;;1.50;95.21;100127.80;105714;1293;72708;-67
2022/12/28 01:48:23;;;;;;;12.80;2.60;;;;;;;1.44;95.61;100119.10;105722;1287;68886;-66
2022/12/28 01:51:12;;;;;;;13.60;3.10;;;;;;;1.44;95.94;100121.05;105720;1294;73729;-66
2022/12/28 01:54:02;;;;;;;12.90;3.00;;;;;;;1.43;96.23;100113.73;105703;1294;58495;-67
2022/12/28 01:56:51;;;;;;;12.10;2.80;;;;;;;1.43;96.40;100117.73;105659;1294;61138;-66
2022/12/28 01:59:45;;;;;;;8.30;2.70;;;;;;;1.46;96.42;100118.52;105721;1286;74789;-66
2022/12/28 02:02:35;;;;;;;11.40;3.00;;;;;;;1.49;96.66;100119.09;105743;1293;67535;-66
2022/12/28 02:05:28;;;;;;;13.80;3.20;;;;;;;1.53;96.55;100117.35;105646;1289;72748;-66
2022/12/28 02:08:40;;;;;;;13.00;4.50;;;;;;;1.56;96.35;100111.48;105797;1300;58183;-66
2022/12/28 02:11:28;;;;;;;14.70;3.80;;;;;;;1.59;96.19;100106.96;105711;1294;61232;-66
2022/12/28 02:14:19;;;;;;;13.60;3.50;;;;;;;1.61;96.03;100098.36;105837;1293;72626;-65
2022/12/28 02:17:10;;;;;;;17.30;3.70;;;;;;;1.63;95.77;100103.48;105722;1294;67824;-65
2022/12/28 02:19:59;;;;;;;18.80;3.50;;;;;;;1.67;95.58;100107.34;105802;1295;73703;-66
2022/12/28 02:22:56;;;;;;;14.70;3.80;;;;;;;1.72;95.25;100108.73;105687;1294;57949;-65
2022/12/28 02:25:55;;;;;;;9.80;3.20;;;;;;;1.78;94.99;100108.84;105838;1300;60581;-69
2022/12/28 02:28:51;;;;;;;10.40;3.50;;;;;;;1.81;94.80;100112.57;105723;1287;73019;-67
2022/12/28 02:31:50;;;;;;;10.80;3.60;;;;;;;1.84;94.81;100112.96;105079;1294;1002367;-66
2022/12/28 02:35:27;;;;;;;11.40;3.50;;;;;;;1.89;94.93;100104.89;105719;1294;71255;-66
2022/12/28 02:38:24;;;;;;;15.80;4.10;;;;;;;1.94;94.62;100099.08;105177;1299;58552;-67
2022/12/28 02:41:19;;;;;;;12.70;3.80;;;;;;;1.98;94.49;100095.45;105200;1300;59237;-65
2022/12/28 02:44:08;;;;;;;17.50;4.50;;;;;;;1.97;94.50;100094.23;105047;1302;73801;-66
2022/12/28 02:50:07;;;;;;;13.20;4.60;;;;;;;1.95;94.70;100090.67;105067;1301;72630;-66
2022/12/28 02:53:11;;;;;;;13.00;4.50;;;;;;;1.97;94.82;100086.88;105195;1300;59559;-67
2022/12/28 02:56:52;;;;;;;13.20;4.20;;;;;;;1.99;94.64;100084.90;105049;1303;60581;-66
2022/12/28 02:59:56;;;;;;;10.60;3.90;;;;;;;2.00;94.53;100082.89;104838;1304;75416;-66
2022/12/28 03:03:57;;;;;;;10.90;4.30;;;;;;;2.00;94.44;100076.77;105156;1296;67759;-66
2022/12/28 03:10:34;;;;;;;17.10;6.10;;;;;;;1.95;92.95;100053.71;104239;1311;58279;-66
2022/12/28 03:13:42;;;;;;;14.70;4.80;;;;;;;1.91;92.93;100053.89;104359;1301;61459;-65
2022/12/28 03:32:29;;;;;;;15.60;5.30;;;;;;;1.79;92.89;100032.36;104949;1303;74744;-66
2022/12/28 03:35:22;;;;;;;13.60;4.90;;;;;;;1.71;93.22;100026.20;104831;1305;68712;-66
2022/12/28 03:38:25;;;;;;;15.20;6.40;;;;;;;1.66;93.39;100023.60;105502;1297;73838;-67
2022/12/28 03:41:30;;;;;;;15.60;5.00;;;;;;;1.60;93.18;100025.09;105680;1296;58680;-66
2022/12/28 03:44:31;;;;;;;14.80;4.90;;;;;;;1.51;92.20;100029.29;105731;1294;60068;-66
2022/12/28 03:47:22;;;;;;;16.70;6.00;;;;;;;1.45;92.34;100020.96;105738;1287;72827;-65
2022/12/28 03:50:11;;;;;;;17.90;6.10;;;;;;;1.40;92.67;100014.54;105683;1293;67676;-66
2022/12/28 03:52:59;;;;;;;12.00;4.70;;;;;;;1.34;92.84;100014.06;104995;1287;1001994;-66
2022/12/28 03:55:48;;;;;;;13.00;4.30;;;;;;;1.26;93.00;100010.20;105638;1287;58946;-66
2022/12/28 03:58:38;;;;;;;13.90;4.50;;;;;;;1.22;92.83;100009.66;105703;1294;60196;-66
2022/12/28 04:01:28;;;;;;;11.70;3.90;;;;;;;1.17;92.99;100003.55;105742;1288;73463;-66
2022/12/28 04:04:16;;;;;;;12.10;4.40;;;;;;;1.14;92.68;99999.99;105730;1287;67943;-66
2022/12/28 04:07:04;;;;;;;17.10;5.30;;;;;;;1.12;92.47;99996.59;105707;1294;71379;-65
2022/12/28 04:09:51;;;;;;;16.20;4.80;;;;;;;1.10;92.50;99994.25;105737;1287;58777;-66
2022/12/28 04:12:39;;;;;;;12.00;4.10;;;;;;;1.08;92.01;99992.75;105755;1294;60101;-66
2022/12/28 04:16:00;;;;;;;13.90;3.90;;;;;;;1.06;91.91;99992.46;105739;1279;72970;-65
2022/12/28 04:18:48;;;;;;;12.10;3.40;;;;;;;1.04;91.94;99988.00;105734;1286;67776;-65
2022/12/28 04:21:36;;;;;;;14.60;3.80;;;;;;;1.01;92.16;99980.77;105700;1294;72578;-65
2022/12/28 04:24:24;;;;;;;10.50;3.70;;;;;;;0.99;92.38;99980.82;105775;1294;58078;-65
2022/12/28 04:27:13;;;;;;;9.50;3.20;;;;;;;0.98;92.33;99979.14;105578;1296;61404;-65
2022/12/28 04:30:01;;;;;;;12.10;3.60;;;;;;;0.96;92.46;99976.25;104788;1296;1002855;-64
2022/12/28 04:32:50;;;;;;;10.50;3.10;;;;;;;0.92;92.61;99974.11;105526;1296;67590;-65
2022/12/28 04:35:38;;;;;;;13.70;3.60;;;;;;;0.88;92.99;99964.69;105548;1296;72448;-66
2022/12/28 04:38:27;;;;;;;13.20;3.70;;;;;;;0.83;92.99;99963.98;105574;1297;59048;-65
2022/12/28 04:41:14;;;;;;;8.90;3.50;;;;;;;0.79;93.11;99959.98;105597;1289;58840;-66
2022/12/28 04:44:02;;;;;;;10.80;3.30;;;;;;;0.72;93.61;99957.27;105591;1296;72444;-65
2022/12/28 04:46:50;;;;;;;12.70;3.50;;;;;;;0.65;93.89;99949.30;105601;1289;68661;-65
2022/12/28 04:49:39;;;;;;;10.00;3.60;;;;;;;0.59;94.54;99948.33;105575;1289;73607;-67
2022/12/28 04:52:27;;;;;;;14.30;4.10;;;;;;;0.55;94.65;99947.81;105571;1297;58531;-65
2022/12/28 04:55:15;;;;;;;13.70;3.60;;;;;;;0.50;95.00;99945.72;105599;1297;59228;-66
2022/12/28 04:58:20;;;;;;;14.10;4.10;;;;;;;0.44;95.44;99942.27;105687;1293;73868;-66
2022/12/28 05:01:12;;;;;;;11.90;4.30;;;;;;;0.40;95.89;99938.41;105832;1294;66333;-66
2022/12/28 05:04:00;;;;;;;16.20;4.40;;;;;;;0.35;96.24;99934.05;105656;1297;71380;-65
2022/12/28 05:06:48;;;;;;;15.30;5.10;;;;;;;0.31;96.40;99927.91;105790;1294;58666;-65
2022/12/28 05:09:36;;;;;;;13.20;3.40;;;;;;;0.28;96.81;99930.83;105727;1287;58943;-66
2022/12/28 05:12:25;;;;;;;11.50;3.60;;;;;;;0.25;97.09;99927.77;105719;1294;73590;-66
2022/12/28 05:15:13;;;;;;;15.80;4.50;;;;;;;0.22;97.54;99913.95;105816;1286;66242;-65
2022/12/28 05:18:01;;;;;;;13.60;3.80;;;;;;;0.20;97.56;99909.33;105635;1302;73809;-66
2022/12/28 05:20:49;;;;;;;16.10;4.30;;;;;;;0.19;97.39;99903.09;105783;1295;58374;-67
2022/12/28 05:23:38;;;;;;;10.70;3.70;;;;;;;0.17;97.70;99902.61;105728;1294;58798;-66
2022/12/28 05:26:28;;;;;;;12.60;4.40;;;;;;;0.16;98.71;99899.48;105716;1286;74006;-66
2022/12/28 05:29:16;;;;;;;14.40;4.10;;;;;;;0.16;99.46;99892.85;105721;1291;66170;-68
2022/12/28 05:32:05;;;;;;;14.00;4.60;;;;;;;0.20;99.07;99888.19;105019;1294;1002524;-68
2022/12/28 05:34:53;;;;;;;13.60;4.40;;;;;;;0.23;99.05;99879.53;105796;1294;58984;-71
2022/12/28 05:37:41;;;;;;;14.10;4.90;;;;;;;0.25;99.38;99879.27;105700;1294;60243;-67
2022/12/28 05:40:33;;;;;;;16.00;4.80;;;;;;;0.29;99.26;99885.23;105825;1285;73811;-68
2022/12/28 05:43:21;;;;;;;13.80;5.30;;;;;;;0.35;99.48;99890.08;105794;1294;69137;-68
2022/12/28 05:46:14;;;;;;;15.30;6.10;;;;;;;0.40;99.38;99884.30;105077;1294;1002906;-69
2022/12/28 05:49:02;;;;;;;11.60;5.10;;;;;;;0.44;99.78;99880.83;105497;1297;169664;-70
2022/12/28 05:51:50;;;;;;;12.40;5.00;;;;;;;0.50;100.00;99878.66;105809;1290;60031;-70
2022/12/28 05:54:38;;;;;;;11.90;5.30;;;;;;;0.57;99.88;99868.98;105807;1293;72190;-70
2022/12/28 05:57:26;;;;;;;14.00;5.50;;;;;;;0.62;99.89;99862.66;105775;1286;68688;-66
2022/12/28 06:00:14;;;;;;;14.70;5.80;;;;;;;0.67;99.67;99849.38;104301;1289;1002872;-69
2022/12/28 06:03:02;;;;;;;13.20;6.40;;;;;;;0.71;99.50;99839.95;105790;1295;58499;-68
2022/12/28 06:05:49;;;;;;;13.30;6.10;;;;;;;0.74;99.87;99840.72;105793;1294;61212;-67
2022/12/28 06:08:38;;;;;;;14.20;6.00;;;;;;;0.77;99.94;99838.69;105694;1293;75072;-67
2022/12/28 06:11:28;;;;;;;14.30;6.20;;;;;;;0.80;99.91;99834.87;105781;1292;67836;-68
2022/12/28 06:14:16;;;;;;;14.30;6.40;;;;;;;0.82;99.92;99830.43;105700;1287;72610;-68
2022/12/28 06:17:04;;;;;;;15.80;7.00;;;;;;;0.83;99.89;99827.73;105757;1294;58409;-68
2022/12/28 06:19:52;;;;;;;15.60;5.10;;;;;;;0.83;99.92;99827.39;105774;1294;60593;-69
2022/12/28 06:22:40;;;;;;;16.90;7.00;;;;;;;0.82;100.00;99828.33;105697;1294;71306;-70
2022/12/28 06:25:28;;;;;;;17.40;6.60;;;;;;;0.82;100.00;99826.23;105776;1294;67675;-68
2022/12/28 06:28:16;;;;;;;15.80;7.60;;;;;;;0.81;100.00;99823.11;105775;1290;72553;-69
2022/12/28 06:31:26;;;;;;;16.90;7.50;;;;;;;0.81;100.00;99814.21;105758;1287;57979;-70
2022/12/28 06:34:14;;;;;;;16.10;7.90;;;;;;;0.81;100.00;99817.36;105674;1294;61550;-69
2022/12/28 06:37:03;;;;;;;18.60;7.20;;;;;;;0.81;100.00;99810.35;105792;1293;73795;-69
2022/12/28 06:39:51;;;;;;;18.50;7.00;;;;;;;0.81;100.00;99806.73;105816;1294;67702;-70
2022/12/28 06:42:39;;;;;;;17.70;8.50;;;;;;;0.80;100.00;99803.08;105772;1294;71231;-70
2022/12/28 06:45:27;;;;;;;17.70;6.90;;;;;;;0.80;100.00;99803.08;105764;1294;58469;-68
2022/12/28 06:48:15;;;;;;;18.00;7.50;;;;;;;0.80;100.00;99796.45;105815;1297;59028;-69
2022/12/28 06:51:06;;;;;;;16.60;6.80;;;;;;;0.79;100.00;99798.91;105790;1293;73661;-67
2022/12/28 06:53:56;;;;;;;16.70;7.80;;;;;;;0.80;100.00;99801.33;105786;1290;67527;-69
2022/12/28 06:56:43;;;;;;;21.50;9.20;;;;;;;0.81;100.00;99803.92;104927;1287;1002295;-70
2022/12/28 06:59:32;;;;;;;19.40;9.00;;;;;;;0.81;100.00;99801.48;105688;1294;58486;-68
2022/12/28 07:02:20;;;;;;;17.20;7.00;;;;;;;0.79;100.00;99795.94;105800;1295;61135;-71
2022/12/28 07:05:08;;;;;;;18.80;7.80;;;;;;;0.84;100.00;99795.05;105481;1299;73957;-68
2022/12/28 07:07:56;;;;;;;22.30;9.10;;;;;;;0.85;100.00;99793.78;105402;1298;66463;-71
2022/12/28 07:10:45;;;;;;;21.10;9.20;;;;;;;0.88;100.00;99785.98;105463;1295;72710;-69
2022/12/28 07:13:34;;;;;;;22.50;9.40;;;;;;;0.90;100.00;99778.89;105501;1298;58215;-72
2022/12/28 07:16:24;;;;;;;19.40;9.00;;;;;;;0.93;100.00;99776.49;105438;1298;59064;-70
2022/12/28 07:19:12;;;;;;;20.00;8.60;;;;;;;0.95;100.00;99769.77;105365;1300;72343;-70
2022/12/28 07:21:59;;;;;;;15.10;7.10;;;;;;;0.97;100.00;99762.88;105519;1297;66463;-69
2022/12/28 07:24:47;;;;;;;17.60;7.60;;;;;;;0.98;100.00;99760.56;105422;1294;71409;-71
2022/12/28 07:27:35;;;;;;;16.00;8.70;;;;;;;1.00;100.00;99755.95;105412;1304;58465;-69
2022/12/28 07:30:23;;;;;;;18.40;9.40;;;;;;;1.03;100.00;99752.34;105488;1297;60469;-68
2022/12/28 07:33:11;;;;;;;12.20;6.00;;;;;;;1.05;100.00;99753.11;105495;1290;73631;-69
2022/12/28 07:35:59;;;;;;;18.90;7.70;;;;;;;1.07;100.00;99751.30;105448;1306;67928;-69
2022/12/28 07:38:48;;;;;;;20.10;9.10;;;;;;;1.07;100.00;99746.58;105381;1293;70895;-69
2022/12/28 07:41:35;;;;;;;19.10;9.00;;;;;;;1.08;100.00;99743.71;105503;1298;59718;-70
2022/12/28 07:44:25;;;;;;;16.30;7.40;;;;;;;1.12;100.00;99740.77;105798;1298;60103;-67
2022/12/28 07:47:17;;;;;;;19.00;8.80;;;;;;;1.10;100.00;99731.57;105777;1294;73822;-70
2022/12/28 07:50:05;;;;;;;19.80;8.30;;;;;;;1.15;100.00;99729.78;105810;1295;66433;-65
2022/12/28 07:52:53;;;;;;;17.60;8.40;;;;;;;1.18;100.00;99726.66;105692;1294;73743;-70
2022/12/28 07:55:42;;;;;;;18.50;8.70;;;;;;;1.22;100.00;99722.14;105812;1294;58227;-68
2022/12/28 07:58:30;;;;;;;18.50;8.10;;;;;;;1.26;100.00;99717.08;105811;1294;58486;-70
2022/12/28 08:01:20;;;;;;;17.10;8.40;;;;;;;1.29;100.00;99721.29;105798;1294;73587;-71
2022/12/28 08:04:12;;;;;;;16.70;6.50;;;;;;;1.33;100.00;99721.11;105699;1290;67183;-67
2022/12/28 08:07:00;;;;;;;17.80;7.90;;;;;;;1.38;99.95;99717.92;105701;1295;71074;-68
2022/12/28 08:09:48;;;;;;;18.40;8.00;;;;;;;1.40;99.92;99718.02;105771;1287;58004;-69
2022/12/28 08:12:36;;;;;;;18.80;7.90;;;;;;;1.43;99.66;99706.34;105694;1293;58961;-68
2022/12/28 08:15:24;;;;;;;20.80;9.10;;;;;;;1.44;99.74;99702.42;105797;1294;73580;-68
2022/12/28 08:18:12;;;;;;;19.40;7.90;;;;;;;1.47;99.72;99696.18;105789;1290;68379;-70
2022/12/28 08:21:07;;;;;;;18.80;8.00;;;;;;;1.48;99.53;99700.33;105672;1295;72300;-72
2022/12/28 08:23:56;;;;;;;18.80;9.10;;;;;;;1.49;99.30;99701.66;105713;1294;58301;-69
2022/12/28 08:26:46;;;;;;;19.60;9.30;;;;;;;1.49;99.32;99706.23;105819;1294;59552;-72
2022/12/28 08:29:34;;;;;;;18.40;9.40;;;;;;;1.49;99.43;99702.73;105663;1295;73615;-68
2022/12/28 08:32:22;;;;;;;21.10;8.90;;;;;;;1.49;99.40;99699.05;105665;1294;68867;-68
2022/12/28 08:35:11;;;;;;;19.40;9.20;;;;;;;1.50;99.76;99699.73;105807;1300;71424;-71
2022/12/28 08:37:59;;;;;;;18.50;7.80;;;;;;;1.50;99.61;99697.63;105796;1293;58432;-68
2022/12/28 08:40:56;;;;;;;15.90;7.40;;;;;;;1.49;99.70;99699.59;105791;1295;60025;-67
2022/12/28 08:43:45;;;;;;;18.00;8.30;;;;;;;1.46;99.76;99702.01;105707;1293;72494;-69
2022/12/28 08:46:34;;;;;;;16.80;8.00;;;;;;;1.41;99.87;99703.83;105700;1293;67960;-68
2022/12/28 08:49:23;;;;;;;15.60;7.30;;;;;;;1.41;99.78;99699.09;105704;1294;71043;-68
2022/12/28 08:52:12;;;;;;;20.20;8.70;;;;;;;1.38;99.86;99697.65;105701;1295;58095;-69
2022/12/28 08:55:00;;;;;;;19.60;9.20;;;;;;;1.38;99.93;99699.42;105739;1294;60042;-70
2022/12/28 08:57:48;;;;;;;18.30;8.40;;;;;;;1.39;99.91;99698.52;105719;1286;73938;-68
2022/12/28 09:00:36;;;;;;;15.80;7.80;;;;;;;1.38;99.72;99691.70;105628;1295;66178;-69
2022/12/28 09:03:24;;;;;;;19.10;9.70;;;;;;;1.35;99.86;99687.27;105701;1294;72541;-69
2022/12/28 09:06:16;;;;;;;17.40;7.90;;;;;;;1.34;100.00;99691.02;105605;1297;58719;-69
2022/12/28 09:09:09;;;;;;;13.40;6.50;;;;;;;1.34;100.00;99686.80;105580;1295;60407;-69
2022/12/28 09:11:57;;;;;;;17.90;8.60;;;;;;;1.32;100.00;99676.93;105634;1293;72295;-68
2022/12/28 09:14:45;;;;;;;19.00;8.30;;;;;;;1.33;100.00;99670.94;105716;1294;66484;-68
2022/12/28 09:17:33;;;;;;;19.40;8.30;;;;;;;1.33;100.00;99668.83;105707;1294;72420;-69
2022/12/28 09:20:21;;;;;;;17.80;9.10;;;;;;;1.34;100.00;99669.85;105694;1294;58129;-69
2022/12/28 09:23:10;;;;;;;15.80;7.80;;;;;;;1.34;100.00;99662.67;105750;1294;58637;-70
2022/12/28 09:26:14;;;;;;;16.40;7.50;;;;;;;1.39;100.00;99663.19;105705;1293;73609;-69
2022/12/28 09:29:07;;;;;;;18.80;8.70;;;;;;;1.36;100.00;99665.21;105635;1294;68692;-69
2022/12/28 09:31:56;;;;;;;17.00;9.60;;;;;;;1.35;100.00;99660.04;105710;1294;72661;-68
2022/12/28 09:34:44;;;;;;;15.70;8.10;;;;;;;1.34;100.00;99657.06;105719;1296;58493;-67
2022/12/28 09:37:32;;;;;;;15.30;8.10;;;;;;;1.33;100.00;99649.80;105728;1294;60255;-70
2022/12/28 09:40:20;;;;;;;18.00;8.30;;;;;;;1.31;100.00;99650.58;105698;1294;73690;-69
2022/12/28 09:43:11;;;;;;;16.90;8.00;;;;;;;1.33;100.00;99645.80;104996;1300;1002062;-69
2022/12/28 09:45:59;;;;;;;15.70;7.80;;;;;;;1.37;100.00;99641.40;105655;1294;71182;-71
2022/12/28 09:48:56;;;;;;;20.30;9.30;;;;;;;1.38;100.00;99630.67;105798;1290;58452;-70
2022/12/28 09:52:03;;;;;;;17.10;8.50;;;;;;;1.41;100.00;99622.20;105709;1293;58875;-69
2022/12/28 09:54:52;;;;;;;18.50;8.60;;;;;;;1.43;100.00;99600.41;105699;1294;73614;-67
2022/12/28 09:57:59;;;;;;;14.70;7.50;;;;;;;1.46;100.00;99607.05;105711;1295;68697;-70
2022/12/28 10:00:54;;;;;;;19.50;9.40;;;;;;;1.49;100.00;99603.80;105703;1290;72422;-68
2022/12/28 10:03:45;;;;;;;18.30;8.80;;;;;;;1.51;100.00;99599.86;105639;1296;58018;-67
2022/12/28 10:06:35;;;;;;;20.40;8.90;;;;;;;1.50;100.00;99588.86;105794;1293;60033;-67
2022/12/28 10:09:28;;;;;;;17.50;9.00;;;;;;;1.52;100.00;99576.17;105684;1295;75161;-70
2022/12/28 10:12:23;;;;;;;18.20;9.00;;;;;;;1.53;100.00;99576.98;105592;1299;68895;-69
2022/12/28 10:15:14;;;;;;;17.20;7.70;;;;;;;1.57;100.00;99564.59;105641;1295;71049;-68
2022/12/28 10:18:04;;;;;;;17.60;9.60;;;;;;;1.59;100.00;99543.36;105803;1290;57933;-69
2022/12/28 10:20:54;;;;;;;15.70;8.20;;;;;;;1.64;99.62;99531.56;105715;1294;60351;-68
2022/12/28 10:23:46;;;;;;;18.00;7.40;;;;;;;1.64;99.34;99552.49;105606;1295;73640;-70
2022/12/28 10:26:57;;;;;;;14.20;7.60;;;;;;;1.65;99.64;99530.41;105691;1285;67826;-68
2022/12/28 10:29:45;;;;;;;17.00;8.40;;;;;;;1.69;99.13;99515.91;105812;1289;72416;-68
2022/12/28 10:32:54;;;;;;;17.60;8.80;;;;;;;1.74;98.97;99507.28;105791;1295;58821;-69
2022/12/28 10:35:53;;;;;;;15.40;7.20;;;;;;;1.83;98.66;99497.55;105722;1296;59213;-69
2022/12/28 10:38:48;;;;;;;17.60;9.20;;;;;;;1.87;98.04;99495.95;105818;1294;72340;-67
2022/12/28 10:41:39;;;;;;;19.00;8.60;;;;;;;1.89;97.65;99499.50;105699;1287;67708;-69
2022/12/28 10:44:32;;;;;;;21.80;8.90;;;;;;;1.90;97.63;99501.23;105775;1294;70093;-69
2022/12/28 10:47:34;;;;;;;15.90;7.90;;;;;;;1.96;97.23;99496.02;105910;1295;58055;-67
2022/12/28 10:50:48;;;;;;;17.10;8.60;;;;;;;1.99;96.67;99497.95;106001;1290;58838;-69
2022/12/28 10:53:50;;;;;;;15.20;7.30;;;;;;;2.00;96.18;99507.31;105925;1288;72463;-68
2022/12/28 10:56:48;;;;;;;15.80;7.20;;;;;;;1.97;96.20;99506.77;105680;1290;66460;-68
2022/12/28 10:59:38;;;;;;;17.60;7.40;;;;;;;1.99;95.91;99495.16;105679;1294;71005;-66
2022/12/28 11:02:31;;;;;;;13.20;6.40;;;;;;;2.01;95.84;99493.48;105782;1296;58484;-70
2022/12/28 11:05:23;;;;;;;16.50;7.10;;;;;;;1.97;95.51;99484.39;105640;1302;60952;-68
2022/12/28 11:08:15;;;;;;;14.40;7.00;;;;;;;1.99;95.58;99476.10;105598;1294;74880;-70
2022/12/28 11:11:03;;;;;;;10.40;5.50;;;;;;;1.99;95.22;99478.17;105585;1297;68615;-69
2022/12/28 11:14:04;;;;;;;13.70;7.00;;;;;;;1.98;95.04;99478.77;105063;1290;1002350;-71
2022/12/28 11:16:53;;;;;;;13.50;6.60;;;;;;;1.98;94.89;99468.63;105796;1290;58233;-68
2022/12/28 11:19:41;;;;;;;15.50;6.30;;;;;;;1.99;94.71;99471.14;105773;1290;61175;-69
2022/12/28 11:22:30;;;;;;;13.80;6.00;;;;;;;2.03;94.73;99462.38;105801;1287;72202;-69
2022/12/28 11:25:30;;;;;;;13.30;6.40;;;;;;;2.09;94.44;99454.21;105715;1297;66579;-72
2022/12/28 11:28:21;;;;;;;16.20;6.20;;;;;;;2.14;94.06;99448.54;105786;1295;71280;-69
2022/12/28 11:31:20;;;;;;;13.50;6.30;;;;;;;2.20;93.87;99440.88;105695;1292;58043;-68
2022/12/28 11:34:16;;;;;;;12.10;6.60;;;;;;;2.32;93.06;99428.67;105712;1296;61181;-69
2022/12/28 11:37:12;;;;;;;15.20;5.90;;;;;;;2.47;92.14;99428.38;105675;1284;73897;-68
2022/12/28 11:40:00;;;;;;;14.70;6.20;;;;;;;2.57;91.50;99421.69;105715;1292;65635;-70
2022/12/28 11:42:54;;;;;;;12.90;5.70;;;;;;;2.69;90.95;99414.40;105796;1287;72486;-67
2022/12/28 11:45:55;;;;;;;13.70;5.80;;;;;;;2.73;90.60;99414.70;105706;1290;57981;-69
2022/12/28 11:48:43;;;;;;;13.10;5.40;;;;;;;2.71;90.42;99403.92;105701;1295;59067;-67
2022/12/28 11:51:36;;;;;;;13.10;6.10;;;;;;;2.74;90.22;99393.30;105608;1293;73943;-68
2022/12/28 11:54:57;;;;;;;10.50;5.00;;;;;;;2.89;89.86;99394.34;105658;1293;68885;-68
2022/12/28 11:57:46;;;;;;;13.40;5.50;;;;;;;3.06;88.84;99384.48;105707;1290;72516;-69
2022/12/28 12:00:37;;;;;;;12.90;5.50;;;;;;;3.08;88.33;99386.61;105793;1290;58432;-66
2022/12/28 12:03:57;;;;;;;10.80;4.80;;;;;;;3.10;88.10;99381.09;105802;1293;60256;-70
2022/12/28 12:06:47;;;;;;;12.30;5.10;;;;;;;3.07;88.40;99369.88;105783;1290;74014;-68
2022/12/28 12:09:37;;;;;;;15.40;5.30;;;;;;;3.02;88.37;99368.92;105774;1296;67684;-68
2022/12/28 12:12:28;;;;;;;13.20;6.10;;;;;;;3.00;88.36;99362.76;105799;1294;71399;-71
2022/12/28 12:15:24;;;;;;;13.20;5.50;;;;;;;2.90;88.33;99358.01;105775;1290;58429;-70
2022/12/28 12:18:24;;;;;;;12.80;5.10;;;;;;;2.77;88.74;99354.41;105664;1288;59122;-67
2022/12/28 12:21:28;;;;;;;11.80;5.30;;;;;;;2.77;89.36;99355.30;105630;1298;74654;-66
2022/12/28 12:24:34;;;;;;;13.30;5.80;;;;;;;2.74;89.24;99354.92;105810;1296;66451;-68
2022/12/28 12:27:38;;;;;;;10.60;4.80;;;;;;;2.75;89.73;99351.91;105730;1295;73775;-69
2022/12/28 12:30:28;;;;;;;13.70;5.30;;;;;;;2.72;89.63;99337.82;105705;1294;58035;-68
2022/12/28 12:33:25;;;;;;;13.20;5.10;;;;;;;2.70;89.63;99323.26;105710;1288;61420;-66
2022/12/28 12:36:39;;;;;;;12.30;5.20;;;;;;;2.69;89.93;99323.29;104952;1293;1002408;-72
2022/12/28 12:39:58;;;;;;;12.80;5.00;;;;;;;2.77;90.17;99323.74;105805;1292;67895;-70
2022/12/28 12:43:17;;;;;;;12.00;5.70;;;;;;;2.72;89.76;99326.98;105729;1292;72621;-67
2022/12/28 12:46:07;;;;;;;13.50;5.50;;;;;;;2.70;89.91;99325.52;105686;1293;58616;-69
2022/12/28 12:49:22;;;;;;;11.60;4.80;;;;;;;2.65;89.89;99327.73;105832;1290;58913;-67
2022/12/28 12:52:51;;;;;;;11.30;5.00;;;;;;;2.65;90.37;99317.23;105656;1293;73796;-68
2022/12/28 12:56:12;;;;;;;9.60;4.30;;;;;;;2.67;89.99;99311.34;105827;1293;65426;-68
2022/12/28 12:59:37;;;;;;;12.40;5.50;;;;;;;2.66;90.27;99311.02;105799;1295;73746;-68
2022/12/28 13:02:52;;;;;;;11.80;4.70;;;;;;;2.66;90.12;99303.30;105765;1295;59828;-70
2022/12/28 13:05:57;;;;;;;12.70;5.30;;;;;;;2.71;90.32;99305.11;105814;1294;58951;-70
2022/12/28 13:08:56;;;;;;;11.10;4.80;;;;;;;2.72;90.23;99302.82;105644;1298;72655;-69
2022/12/28 13:11:52;;;;;;;13.70;5.00;;;;;;;2.68;90.40;99296.04;105807;1290;66422;-70
2022/12/28 13:14:51;;;;;;;12.20;5.50;;;;;;;2.67;90.81;99291.55;105784;1285;72552;-70
2022/12/28 13:17:57;;;;;;;16.00;5.00;;;;;;;2.64;90.75;99278.38;105689;1285;59891;-69
2022/12/28 13:21:06;;;;;;;11.60;5.80;;;;;;;2.68;90.84;99282.89;105693;1288;58952;-70
2022/12/28 13:23:59;;;;;;;14.00;5.20;;;;;;;2.69;91.03;99280.41;105623;1294;75138;-71
2022/12/28 13:26:48;;;;;;;12.40;5.00;;;;;;;2.73;91.03;99278.77;105690;1287;67814;-71
2022/12/28 13:29:39;;;;;;;11.40;4.70;;;;;;;2.76;90.98;99274.60;105620;1290;72382;-67
2022/12/28 13:32:35;;;;;;;12.20;5.80;;;;;;;2.76;90.86;99269.35;105684;1294;58173;-69
2022/12/28 13:35:32;;;;;;;12.30;5.20;;;;;;;2.79;90.99;99266.55;105656;1287;59809;-72
2022/12/28 13:38:21;;;;;;;10.60;4.90;;;;;;;2.78;91.02;99265.73;105512;1296;71518;-68
2022/12/28 13:41:26;;;;;;;11.30;5.00;;;;;;;2.77;91.28;99261.89;105779;1290;67702;-71
2022/12/28 13:44:32;;;;;;;9.60;4.60;;;;;;;2.76;91.46;99265.33;105673;1287;72679;-70